createdAt,value
2023-03-01T00:01:56.041Z,101256.78
2023-03-01T00:04:25.978Z,101261.44
2023-03-01T00:06:54.869Z,101255.00
2023-03-01T00:09:23.963Z,101248.16
2023-03-01T00:11:52.435Z,101249.53
2023-03-01T00:14:20.842Z,101248.91
2023-03-01T00:16:49.338Z,101243.81
2023-03-01T00:19:22.798Z,101251.88
2023-03-01T00:21:52.105Z,101255.50
2023-03-01T00:24:20.605Z,101258.25
2023-03-01T00:26:48.993Z,101258.63
2023-03-01T00:29:19.285Z,101258.88
2023-03-01T00:31:48.057Z,101269.13
2023-03-01T00:34:18.156Z,101270.75
2023-03-01T00:36:46.889Z,101264.03
2023-03-01T00:39:17.992Z,101272.31
2023-03-01T00:41:46.324Z,101267.34
2023-03-01T00:44:15.053Z,101272.34
2023-03-01T00:46:43.801Z,101268.25
2023-03-01T00:49:12.186Z,101266.81
2023-03-01T00:51:42.906Z,101260.72
2023-03-01T00:54:11.527Z,101261.44
2023-03-01T00:56:39.816Z,101261.59
2023-03-01T00:59:08.886Z,101261.34
2023-03-01T01:01:37.271Z,101257.88
2023-03-01T01:04:08.103Z,101252.00
2023-03-01T01:06:40.142Z,101251.53
2023-03-01T01:09:18.027Z,101248.81
2023-03-01T01:11:48.538Z,101253.84
2023-03-01T01:14:17.817Z,101248.97
2023-03-01T01:16:48.376Z,101250.84
2023-03-01T01:19:17.372Z,101244.94
2023-03-01T01:21:47.116Z,101251.38
2023-03-01T01:24:17.771Z,101240.22
2023-03-01T01:26:47.046Z,101229.78
2023-03-01T01:29:15.789Z,101234.88
2023-03-01T01:31:45.686Z,101228.03
2023-03-01T01:34:18.339Z,101230.81
2023-03-01T01:36:51.111Z,101228.31
2023-03-01T01:39:21.509Z,101222.22
2023-03-01T01:41:50.599Z,101224.75
2023-03-01T01:44:24.416Z,101218.03
2023-03-01T01:46:57.896Z,101216.31
2023-03-01T01:49:33.641Z,101208.53
2023-03-01T01:52:13.059Z,101201.94
2023-03-01T01:54:49.746Z,101206.41
2023-03-01T01:57:24.846Z,101201.28
2023-03-01T01:59:56.763Z,101196.38
2023-03-01T02:02:25.994Z,101190.31
2023-03-01T02:05:04.657Z,101194.50
2023-03-01T02:07:33.280Z,101184.97
2023-03-01T02:10:04.057Z,101180.69
2023-03-01T02:12:33.573Z,101176.47
2023-03-01T02:15:02.117Z,101173.66
2023-03-01T02:17:31.749Z,101174.28
2023-03-01T02:20:18.078Z,101176.22
2023-03-01T02:22:48.643Z,101171.50
2023-03-01T02:25:36.336Z,101168.00
2023-03-01T02:28:16.525Z,101176.53
2023-03-01T02:31:03.484Z,101167.50
2023-03-01T02:33:33.652Z,101163.31
2023-03-01T02:36:04.310Z,101160.63
2023-03-01T02:38:34.344Z,101167.47
2023-03-01T02:41:04.615Z,101167.69
2023-03-01T02:43:35.954Z,101162.63
2023-03-01T02:46:17.759Z,101167.91
2023-03-01T02:48:50.001Z,101168.81
2023-03-01T02:51:44.405Z,101168.53
2023-03-01T02:54:25.859Z,101163.50
2023-03-01T02:56:55.021Z,101166.03
2023-03-01T02:59:29.004Z,101173.00
2023-03-01T03:01:58.787Z,101169.53
2023-03-01T03:04:27.414Z,101172.56
2023-03-01T03:06:56.754Z,101163.25
2023-03-01T03:09:25.429Z,101171.16
2023-03-01T03:11:54.132Z,101172.56
2023-03-01T03:14:22.950Z,101170.97
2023-03-01T03:16:52.507Z,101166.78
2023-03-01T03:19:22.972Z,101167.50
2023-03-01T03:21:51.515Z,101164.16
2023-03-01T03:24:20.398Z,101168.34
2023-03-01T03:26:49.227Z,101162.53
2023-03-01T03:29:17.830Z,101149.16
2023-03-01T03:31:46.098Z,101155.72
2023-03-01T03:34:19.291Z,101151.38
2023-03-01T03:36:49.036Z,101146.34
2023-03-01T03:39:20.385Z,101142.91
2023-03-01T03:41:49.097Z,101145.66
2023-03-01T03:44:17.345Z,101145.41
2023-03-01T03:46:45.768Z,101143.69
2023-03-01T03:49:14.678Z,101137.09
2023-03-01T03:51:43.300Z,101131.44
2023-03-01T03:54:13.189Z,101135.81
2023-03-01T03:56:41.350Z,101128.94
2023-03-01T03:59:12.336Z,101133.97
2023-03-01T04:01:40.566Z,101140.78
2023-03-01T04:04:08.844Z,101145.84
2023-03-01T04:06:37.081Z,101141.50
2023-03-01T04:09:05.518Z,101136.44
2023-03-01T04:11:35.802Z,101135.94
2023-03-01T04:14:07.770Z,101135.88
2023-03-01T04:16:36.059Z,101129.75
2023-03-01T04:19:04.360Z,101115.19
2023-03-01T04:21:32.688Z,101121.91
2023-03-01T04:24:04.178Z,101115.91
2023-03-01T04:26:35.095Z,101115.78
2023-03-01T04:29:03.378Z,101115.84
2023-03-01T04:31:31.965Z,101109.25
2023-03-01T04:34:02.268Z,101103.25
2023-03-01T04:36:32.639Z,101098.25
2023-03-01T04:39:13.037Z,101103.47
2023-03-01T04:41:45.295Z,101107.88
2023-03-01T04:44:13.618Z,101107.78
2023-03-01T04:46:42.318Z,101111.13
2023-03-01T04:49:10.836Z,101108.53
2023-03-01T04:51:39.413Z,101104.28
2023-03-01T04:54:09.744Z,101110.94
2023-03-01T04:56:38.471Z,101110.88
2023-03-01T04:59:09.375Z,101108.72
2023-03-01T05:01:38.342Z,101113.81
2023-03-01T05:04:08.394Z,101106.88
2023-03-01T05:06:37.061Z,101098.38
2023-03-01T05:09:05.980Z,101093.25
2023-03-01T05:11:36.859Z,101104.59
2023-03-01T05:14:09.219Z,101094.50
2023-03-01T05:16:38.771Z,101092.09
2023-03-01T05:19:12.947Z,101096.47
2023-03-01T05:21:58.751Z,101093.97
2023-03-01T05:24:28.925Z,101094.75
2023-03-01T05:26:57.605Z,101094.47
2023-03-01T05:29:29.783Z,101088.03
2023-03-01T05:32:01.923Z,101098.09
2023-03-01T05:34:33.626Z,101099.09
2023-03-01T05:37:02.467Z,101083.56
2023-03-01T05:39:32.536Z,101083.56
2023-03-01T05:42:02.802Z,101097.97
2023-03-01T05:44:32.990Z,101097.06
2023-03-01T05:47:01.169Z,101091.16
2023-03-01T05:49:29.906Z,101098.09
2023-03-01T05:51:58.717Z,101094.09
2023-03-01T05:54:28.166Z,101094.66
2023-03-01T05:56:57.457Z,101103.66
2023-03-01T05:59:25.909Z,101101.03
2023-03-01T06:01:55.567Z,101101.75
2023-03-01T06:04:24.099Z,101102.72
2023-03-01T06:06:52.855Z,101107.00
2023-03-01T06:09:21.066Z,101103.78
2023-03-01T06:11:49.491Z,101102.81
2023-03-01T06:14:17.839Z,101099.06
2023-03-01T06:16:46.119Z,101090.44
2023-03-01T06:19:16.110Z,101091.19
2023-03-01T06:21:44.344Z,101097.81
2023-03-01T06:24:12.824Z,101096.72
2023-03-01T06:26:41.057Z,101096.66
2023-03-01T06:29:09.581Z,101096.84
2023-03-01T06:31:37.799Z,101089.38
2023-03-01T06:34:06.206Z,101090.28
2023-03-01T06:36:50.998Z,101082.38
2023-03-01T06:39:19.248Z,101080.94
2023-03-01T06:41:47.556Z,101095.16
2023-03-01T06:44:15.810Z,101091.25
2023-03-01T06:46:44.807Z,101087.72
2023-03-01T06:49:13.689Z,101081.97
2023-03-01T06:51:42.143Z,101088.81
2023-03-01T06:54:12.597Z,101086.63
2023-03-01T06:56:41.013Z,101090.38
2023-03-01T06:59:09.490Z,101092.72
2023-03-01T07:01:38.022Z,101094.38
2023-03-01T07:04:06.682Z,101084.09
2023-03-01T07:06:35.376Z,101093.47
2023-03-01T07:09:04.100Z,101092.28
2023-03-01T07:11:34.313Z,101101.84
2023-03-01T07:14:02.536Z,101093.84
2023-03-01T07:16:31.544Z,101089.38
2023-03-01T07:19:00.881Z,101088.25
2023-03-01T07:21:29.230Z,101088.16
2023-03-01T07:23:58.734Z,101085.34
2023-03-01T07:26:27.520Z,101081.06
2023-03-01T07:29:00.838Z,101081.66
2023-03-01T07:31:29.574Z,101081.25
2023-03-01T07:33:58.695Z,101070.16
2023-03-01T07:36:27.370Z,101082.56
2023-03-01T07:38:56.928Z,101076.41
2023-03-01T07:41:26.666Z,101072.59
2023-03-01T07:43:57.763Z,101068.09
2023-03-01T07:46:26.276Z,101070.59
2023-03-01T07:48:54.957Z,101069.88
2023-03-01T07:51:24.002Z,101078.09
2023-03-01T07:53:52.604Z,101077.19
2023-03-01T07:56:22.677Z,101086.06
2023-03-01T07:58:51.587Z,101074.41
2023-03-01T08:01:23.210Z,101076.09
2023-03-01T08:03:52.014Z,101067.19
2023-03-01T08:06:20.642Z,101068.81
2023-03-01T08:08:50.410Z,101054.34
2023-03-01T08:11:19.027Z,101061.13
2023-03-01T08:13:52.197Z,101056.97
2023-03-01T08:16:23.291Z,101057.66
2023-03-01T08:18:51.729Z,101057.28
2023-03-01T08:21:21.051Z,101053.56
2023-03-01T08:23:50.987Z,101051.47
2023-03-01T08:26:22.554Z,101056.91
2023-03-01T08:28:52.310Z,101058.22
2023-03-01T08:31:25.854Z,101050.72
2023-03-01T08:33:57.740Z,101060.44
2023-03-01T08:36:28.670Z,101065.72
2023-03-01T08:38:57.851Z,101061.84
2023-03-01T08:41:26.205Z,101064.06
2023-03-01T08:43:59.658Z,101059.81
2023-03-01T08:46:31.395Z,101066.41
2023-03-01T08:49:00.364Z,101056.59
2023-03-01T08:51:30.394Z,101056.50
2023-03-01T08:53:58.760Z,101052.84
2023-03-01T08:56:27.136Z,101050.94
2023-03-01T08:58:55.459Z,101056.66
2023-03-01T09:01:24.033Z,101050.53
2023-03-01T09:03:54.200Z,101046.31
2023-03-01T09:06:23.506Z,101046.66
2023-03-01T09:08:53.456Z,101041.88
2023-03-01T09:11:23.557Z,101044.22
2023-03-01T09:13:52.118Z,101043.44
2023-03-01T09:16:22.704Z,101049.81
2023-03-01T09:18:54.453Z,101053.97
2023-03-01T09:21:39.150Z,101049.78
2023-03-01T09:24:15.309Z,101056.72
2023-03-01T09:26:47.803Z,101055.53
2023-03-01T09:29:18.050Z,101053.28
2023-03-01T09:31:46.822Z,101050.34
2023-03-01T09:34:17.384Z,101043.47
2023-03-01T09:36:45.899Z,101040.59
2023-03-01T09:39:14.856Z,101038.38
2023-03-01T09:41:58.787Z,101039.75
2023-03-01T09:44:38.050Z,101028.03
2023-03-01T09:47:13.261Z,101029.56
2023-03-01T09:49:49.858Z,101025.59
2023-03-01T09:52:31.266Z,101025.56
2023-03-01T09:55:00.930Z,101018.03
2023-03-01T09:57:39.498Z,101017.00
2023-03-01T10:00:36.698Z,101020.13
2023-03-01T10:03:17.112Z,101013.13
2023-03-01T10:05:57.429Z,101018.25
2023-03-01T10:08:37.380Z,101013.28
2023-03-01T10:11:15.139Z,101015.91
2023-03-01T10:13:54.558Z,101015.53
2023-03-01T10:16:30.965Z,101010.56
2023-03-01T10:19:05.860Z,101006.44
2023-03-01T10:21:43.786Z,101008.13
2023-03-01T10:24:16.411Z,101004.06
2023-03-01T10:26:50.381Z,101007.75
2023-03-01T10:29:19.721Z,100999.06
2023-03-01T10:31:51.436Z,101000.22
2023-03-01T10:34:24.081Z,100990.03
2023-03-01T10:36:55.488Z,100986.09
2023-03-01T10:39:26.746Z,100974.63
2023-03-01T10:42:01.789Z,100978.78
2023-03-01T10:44:46.660Z,100986.34
2023-03-01T10:47:22.763Z,100980.34
2023-03-01T10:50:03.351Z,100978.53
2023-03-01T10:52:43.096Z,100979.13
2023-03-01T10:55:30.142Z,100967.19
2023-03-01T10:58:11.715Z,100971.41
2023-03-01T11:00:52.270Z,100973.59
2023-03-01T11:03:25.722Z,100965.25
2023-03-01T11:06:02.851Z,100959.94
2023-03-01T11:08:43.861Z,100955.22
2023-03-01T11:11:28.172Z,100956.38
2023-03-01T11:14:00.959Z,100951.69
2023-03-01T11:16:35.968Z,100953.19
2023-03-01T11:19:21.465Z,100949.31
2023-03-01T11:22:14.649Z,100942.84
2023-03-01T11:25:00.081Z,100931.94
2023-03-01T11:27:41.193Z,100932.56
2023-03-01T11:30:22.322Z,100923.94
2023-03-01T11:33:02.190Z,100923.88
2023-03-01T11:35:34.423Z,100916.38
2023-03-01T11:38:18.593Z,100914.69
2023-03-01T11:40:54.973Z,100913.94
2023-03-01T11:43:38.575Z,100918.03
2023-03-01T11:46:29.978Z,100914.53
2023-03-01T11:49:16.157Z,100909.69
2023-03-01T11:51:53.916Z,100909.28
2023-03-01T11:54:43.964Z,100894.50
2023-03-01T11:57:26.922Z,100892.53
2023-03-01T12:00:23.034Z,100883.47
2023-03-01T12:03:45.098Z,100885.53
2023-03-01T12:06:41.475Z,100875.88
2023-03-01T12:09:43.390Z,100875.88
2023-03-01T12:12:40.084Z,100865.88
2023-03-01T12:15:42.009Z,100867.38
2023-03-01T12:18:44.587Z,100865.56
2023-03-01T12:21:27.273Z,100862.50
2023-03-01T12:24:16.960Z,100858.16
2023-03-01T12:26:56.771Z,100862.91
2023-03-01T12:29:32.402Z,100853.19
2023-03-01T12:32:21.364Z,100849.41
2023-03-01T12:35:25.986Z,100850.03
2023-03-01T12:38:04.357Z,100855.00
2023-03-01T12:40:55.915Z,100854.75
2023-03-01T12:43:49.723Z,100852.31
2023-03-01T12:46:37.729Z,100846.50
2023-03-01T12:49:15.494Z,100848.19
2023-03-01T12:51:53.813Z,100845.56
2023-03-01T12:54:29.293Z,100832.66
2023-03-01T12:57:01.206Z,100830.75
2023-03-01T12:59:39.920Z,100832.94
2023-03-01T13:02:21.375Z,100814.50
2023-03-01T13:05:08.478Z,100820.84
2023-03-01T13:07:43.652Z,100818.09
2023-03-01T13:10:27.535Z,100812.53
2023-03-01T13:13:14.589Z,100813.84
2023-03-01T13:15:43.910Z,100807.91
2023-03-01T13:18:35.320Z,100811.16
2023-03-01T13:21:07.298Z,100808.69
2023-03-01T13:23:42.757Z,100810.19
2023-03-01T13:26:16.459Z,100807.91
2023-03-01T13:28:57.115Z,100809.16
2023-03-01T13:32:02.635Z,100801.88
2023-03-01T13:35:01.634Z,100790.88
2023-03-01T13:37:39.247Z,100786.50
2023-03-01T13:41:03.544Z,100775.16
2023-03-01T13:43:36.877Z,100783.09
2023-03-01T13:46:13.081Z,100789.53
2023-03-01T13:48:42.256Z,100786.69
2023-03-01T13:51:13.782Z,100787.00
2023-03-01T13:53:47.187Z,100778.22
2023-03-01T13:56:21.396Z,100778.72
2023-03-01T13:58:55.314Z,100781.94
2023-03-01T14:01:27.979Z,100779.97
2023-03-01T14:03:56.693Z,100773.81
2023-03-01T14:06:27.651Z,100773.59
2023-03-01T14:09:12.237Z,100777.88
2023-03-01T14:12:07.641Z,100772.31
2023-03-01T14:14:47.578Z,100774.75
2023-03-01T14:17:57.657Z,100764.88
2023-03-01T14:20:29.939Z,100761.66
2023-03-01T14:23:01.786Z,100765.16
2023-03-01T14:25:33.357Z,100749.81
2023-03-01T14:28:17.084Z,100753.75
2023-03-01T14:30:48.780Z,100748.53
2023-03-01T14:33:27.091Z,100744.06
2023-03-01T14:36:00.322Z,100737.34
2023-03-01T14:38:37.201Z,100733.91
2023-03-01T14:41:11.596Z,100728.75
2023-03-01T14:43:48.777Z,100724.19
2023-03-01T14:46:23.652Z,100720.16
2023-03-01T14:48:54.565Z,100710.25
2023-03-01T14:51:23.601Z,100701.53
2023-03-01T14:53:53.319Z,100695.06
2023-03-01T14:56:21.901Z,100698.81
2023-03-01T14:59:00.218Z,100698.59
2023-03-01T15:01:30.330Z,100698.09
2023-03-01T15:04:02.282Z,100688.50
2023-03-01T15:06:31.478Z,100695.03
2023-03-01T15:09:01.148Z,100693.44
2023-03-01T15:11:32.286Z,100688.53
2023-03-01T15:14:02.483Z,100688.31
2023-03-01T15:16:33.773Z,100690.44
2023-03-01T15:19:05.894Z,100688.72
2023-03-01T15:21:36.930Z,100684.78
2023-03-01T15:24:21.688Z,100679.53
2023-03-01T15:26:58.874Z,100685.94
2023-03-01T15:29:34.249Z,100674.16
2023-03-01T15:32:05.977Z,100679.13
2023-03-01T15:34:37.755Z,100681.28
2023-03-01T15:37:09.632Z,100679.31
2023-03-01T15:39:44.624Z,100669.34
2023-03-01T15:42:17.547Z,100671.34
2023-03-01T15:44:47.269Z,100679.66
2023-03-01T15:47:31.528Z,100677.00
2023-03-01T15:50:02.589Z,100665.59
2023-03-01T15:52:37.666Z,100669.34
2023-03-01T15:55:16.994Z,100658.38
2023-03-01T15:57:45.598Z,100658.03
2023-03-01T16:00:18.695Z,100653.59
2023-03-01T16:02:47.369Z,100655.69
2023-03-01T16:05:24.062Z,100648.13
2023-03-01T16:07:52.734Z,100651.75
2023-03-01T16:10:21.995Z,100655.69
2023-03-01T16:12:52.067Z,100644.78
2023-03-01T16:15:26.050Z,100646.44
2023-03-01T16:17:54.625Z,100641.34
2023-03-01T16:20:29.214Z,100645.50
2023-03-01T16:23:02.439Z,100644.44
2023-03-01T16:25:33.167Z,100648.16
2023-03-01T16:28:06.150Z,100648.88
2023-03-01T16:30:37.209Z,100643.09
2023-03-01T16:33:19.205Z,100650.22
2023-03-01T16:35:53.441Z,100646.06
2023-03-01T16:38:21.965Z,100659.88
2023-03-01T16:40:52.839Z,100650.09
2023-03-01T16:43:22.539Z,100646.78
2023-03-01T16:45:52.287Z,100653.25
2023-03-01T16:48:20.778Z,100651.19
2023-03-01T16:51:08.546Z,100645.31
2023-03-01T16:53:48.749Z,100643.81
2023-03-01T16:56:21.598Z,100647.56
2023-03-01T16:58:53.414Z,100647.25
2023-03-01T17:01:27.493Z,100639.38
2023-03-01T17:03:58.438Z,100650.38
2023-03-01T17:06:30.431Z,100655.06
2023-03-01T17:09:03.675Z,100650.94
2023-03-01T17:11:34.904Z,100653.53
2023-03-01T17:14:06.457Z,100653.00
2023-03-01T17:16:39.534Z,100656.50
2023-03-01T17:19:12.496Z,100651.72
2023-03-01T17:21:43.070Z,100647.84
2023-03-01T17:24:12.508Z,100648.22
2023-03-01T17:26:41.724Z,100650.63
2023-03-01T17:29:10.258Z,100660.97
2023-03-01T17:31:39.832Z,100661.53
2023-03-01T17:34:08.176Z,100662.19
2023-03-01T17:36:44.645Z,100661.91
2023-03-01T17:39:12.879Z,100664.47
2023-03-01T17:41:41.748Z,100662.66
2023-03-01T17:44:10.099Z,100669.00
2023-03-01T17:46:39.830Z,100666.72
2023-03-01T17:49:08.010Z,100669.72
2023-03-01T17:51:38.186Z,100667.72
2023-03-01T17:54:07.069Z,100671.88
2023-03-01T17:56:35.244Z,100671.28
2023-03-01T17:59:03.512Z,100674.25
2023-03-01T18:01:32.227Z,100671.72
2023-03-01T18:04:01.972Z,100664.38
2023-03-01T18:06:31.321Z,100668.41
2023-03-01T18:09:00.385Z,100670.50
2023-03-01T18:11:29.987Z,100668.38
2023-03-01T18:13:59.216Z,100663.25
2023-03-01T18:16:29.061Z,100666.00
2023-03-01T18:18:58.729Z,100673.16
2023-03-01T18:21:30.103Z,100672.59
2023-03-01T18:24:00.830Z,100664.59
2023-03-01T18:26:30.513Z,100667.75
2023-03-01T18:29:01.422Z,100665.91
2023-03-01T18:31:33.204Z,100664.16
2023-03-01T18:34:01.971Z,100664.66
2023-03-01T18:36:35.273Z,100665.84
2023-03-01T18:39:05.341Z,100664.66
2023-03-01T18:41:34.168Z,100654.84
2023-03-01T18:44:04.617Z,100658.34
2023-03-01T18:46:36.897Z,100657.59
2023-03-01T18:49:06.532Z,100657.81
2023-03-01T18:51:36.163Z,100654.16
2023-03-01T18:54:04.847Z,100655.16
2023-03-01T18:56:35.728Z,100654.72
2023-03-01T18:59:04.783Z,100650.56
2023-03-01T19:01:36.823Z,100646.78
2023-03-01T19:04:06.537Z,100652.94
2023-03-01T19:06:36.270Z,100652.31
2023-03-01T19:09:05.590Z,100646.50
2023-03-01T19:11:35.436Z,100645.78
2023-03-01T19:14:05.201Z,100657.38
2023-03-01T19:16:35.841Z,100654.53
2023-03-01T19:19:08.383Z,100649.81
2023-03-01T19:21:40.795Z,100647.50
2023-03-01T19:24:13.205Z,100647.81
2023-03-01T19:26:45.733Z,100644.47
2023-03-01T19:29:14.302Z,100647.81
2023-03-01T19:31:42.484Z,100643.88
2023-03-01T19:34:12.348Z,100636.56
2023-03-01T19:36:43.784Z,100642.50
2023-03-01T19:39:14.357Z,100640.59
2023-03-01T19:41:42.789Z,100638.97
2023-03-01T19:44:11.421Z,100642.00
2023-03-01T19:46:39.720Z,100639.56
2023-03-01T19:49:08.382Z,100637.22
2023-03-01T19:51:39.032Z,100630.09
2023-03-01T19:54:09.834Z,100632.22
2023-03-01T19:56:38.661Z,100638.41
2023-03-01T19:59:06.941Z,100628.50
2023-03-01T20:01:37.501Z,100628.56
2023-03-01T20:04:06.824Z,100620.28
2023-03-01T20:06:35.498Z,100614.72
2023-03-01T20:09:15.630Z,100611.38
2023-03-01T20:11:50.357Z,100609.72
2023-03-01T20:14:18.940Z,100607.53
2023-03-01T20:16:47.181Z,100607.88
2023-03-01T20:19:15.323Z,100604.81
2023-03-01T20:21:43.557Z,100606.25
2023-03-01T20:24:11.764Z,100601.34
2023-03-01T20:26:40.934Z,100606.13
2023-03-01T20:29:11.668Z,100608.03
2023-03-01T20:31:41.629Z,100617.03
2023-03-01T20:34:10.058Z,100607.69
2023-03-01T20:36:40.839Z,100619.59
2023-03-01T20:39:09.607Z,100620.13
2023-03-01T20:41:37.815Z,100624.91
2023-03-01T20:44:06.597Z,100627.34
2023-03-01T20:46:37.105Z,100616.88
2023-03-01T20:49:07.219Z,100630.81
2023-03-01T20:51:35.635Z,100627.81
2023-03-01T20:54:04.949Z,100623.59
2023-03-01T20:56:33.553Z,100635.28
2023-03-01T20:59:05.386Z,100634.06
2023-03-01T21:01:35.231Z,100639.03
2023-03-01T21:04:03.701Z,100631.50
2023-03-01T21:06:32.555Z,100633.41
2023-03-01T21:09:01.112Z,100634.38
2023-03-01T21:11:29.482Z,100636.75
2023-03-01T21:13:58.027Z,100634.69
2023-03-01T21:16:27.942Z,100630.75
2023-03-01T21:18:57.537Z,100633.28
2023-03-01T21:21:25.894Z,100633.72
2023-03-01T21:23:55.761Z,100625.31
2023-03-01T21:26:26.564Z,100631.47
2023-03-01T21:28:58.206Z,100633.25
2023-03-01T21:31:31.879Z,100637.22
2023-03-01T21:34:05.047Z,100633.19
2023-03-01T21:36:35.021Z,100626.22
2023-03-01T21:39:05.460Z,100626.09
2023-03-01T21:41:36.318Z,100627.81
2023-03-01T21:44:06.658Z,100633.53
2023-03-01T21:46:38.856Z,100621.97
2023-03-01T21:49:09.677Z,100627.50
2023-03-01T21:51:38.221Z,100621.34
2023-03-01T21:54:06.898Z,100618.22
2023-03-01T21:56:38.766Z,100617.41
2023-03-01T21:59:09.606Z,100621.78
2023-03-01T22:01:37.828Z,100614.97
2023-03-01T22:04:06.684Z,100620.41
2023-03-01T22:06:40.830Z,100613.81
2023-03-01T22:09:13.981Z,100624.78
2023-03-01T22:11:46.345Z,100618.06
2023-03-01T22:14:15.437Z,100610.94
2023-03-01T22:16:45.559Z,100621.22
2023-03-01T22:19:16.300Z,100621.22
2023-03-01T22:21:49.529Z,100612.97
2023-03-01T22:24:19.536Z,100612.13
2023-03-01T22:26:49.688Z,100617.25
2023-03-01T22:29:21.911Z,100608.25
2023-03-01T22:31:51.431Z,100611.09
2023-03-01T22:34:20.586Z,100608.53
2023-03-01T22:36:50.966Z,100596.22
2023-03-01T22:39:21.708Z,100598.22
2023-03-01T22:41:50.942Z,100604.16
2023-03-01T22:44:22.182Z,100601.59
2023-03-01T22:46:51.695Z,100600.38
2023-03-01T22:49:20.775Z,100604.63
2023-03-01T22:51:51.581Z,100599.81
2023-03-01T22:54:21.273Z,100609.06
2023-03-01T22:56:50.227Z,100607.91
2023-03-01T22:59:22.904Z,100609.16
2023-03-01T23:01:52.023Z,100601.69
2023-03-01T23:04:22.231Z,100610.88
2023-03-01T23:06:55.019Z,100607.94
2023-03-01T23:09:26.716Z,100604.66
2023-03-01T23:11:56.642Z,100599.66
2023-03-01T23:14:25.488Z,100602.81
2023-03-01T23:16:54.096Z,100600.28
2023-03-01T23:19:23.048Z,100598.56
2023-03-01T23:21:54.299Z,100599.75
2023-03-01T23:24:34.200Z,100612.91
2023-03-01T23:27:04.213Z,100596.38
2023-03-01T23:29:33.128Z,100601.97
2023-03-01T23:32:02.556Z,100602.63
2023-03-01T23:34:30.786Z,100607.88
2023-03-01T23:37:00.483Z,100602.88
2023-03-01T23:39:29.916Z,100609.38
2023-03-01T23:41:58.589Z,100601.63
2023-03-01T23:44:27.284Z,100606.41
2023-03-01T23:46:55.595Z,100613.66
2023-03-01T23:49:25.011Z,100608.84
2023-03-01T23:51:53.775Z,100612.31
2023-03-01T23:54:26.494Z,100606.75
2023-03-01T23:56:54.671Z,100605.72
2023-03-01T23:59:24.723Z,100610.44
